sensor_id;sensor_type;location;lat;lon;timestamp;P1;durP1;ratioP1;P2;durP2;ratioP2
47431;SDS011;33183;52.290;6.144;2023-02-28T00:00:24;3.38;;;2.50;;
47431;SDS011;33183;52.290;6.144;2023-02-28T00:02:49;3.20;;;2.58;;
47431;SDS011;33183;52.290;6.144;2023-02-28T00:05:17;4.78;;;2.58;;
47431;SDS011;33183;52.290;6.144;2023-02-28T00:07:44;4.10;;;2.80;;
47431;SDS011;33183;52.290;6.144;2023-02-28T00:10:11;3.22;;;2.20;;
47431;SDS011;33183;52.290;6.144;2023-02-28T00:12:38;4.28;;;2.92;;
47431;SDS011;33183;52.290;6.144;2023-02-28T00:15:07;3.53;;;2.30;;
47431;SDS011;33183;52.290;6.144;2023-02-28T00:17:34;3.80;;;2.25;;
47431;SDS011;33183;52.290;6.144;2023-02-28T00:19:59;3.85;;;2.35;;
47431;SDS011;33183;52.290;6.144;2023-02-28T00:22:28;3.70;;;2.60;;
47431;SDS011;33183;52.290;6.144;2023-02-28T00:24:53;3.70;;;2.55;;
47431;SDS011;33183;52.290;6.144;2023-02-28T00:27:19;2.97;;;2.13;;
47431;SDS011;33183;52.290;6.144;2023-02-28T00:29:46;4.45;;;2.40;;
47431;SDS011;33183;52.290;6.144;2023-02-28T00:32:11;3.65;;;2.47;;
47431;SDS011;33183;52.290;6.144;2023-02-28T00:34:36;3.35;;;2.33;;
47431;SDS011;33183;52.290;6.144;2023-02-28T00:37:03;2.85;;;2.08;;
47431;SDS011;33183;52.290;6.144;2023-02-28T00:39:29;3.78;;;2.20;;
47431;SDS011;33183;52.290;6.144;2023-02-28T00:41:55;2.85;;;2.05;;
47431;SDS011;33183;52.290;6.144;2023-02-28T00:44:20;3.20;;;2.30;;
47431;SDS011;33183;52.290;6.144;2023-02-28T00:46:46;3.33;;;2.30;;
47431;SDS011;33183;52.290;6.144;2023-02-28T00:49:11;3.17;;;2.20;;
47431;SDS011;33183;52.290;6.144;2023-02-28T00:51:37;3.22;;;2.25;;
47431;SDS011;33183;52.290;6.144;2023-02-28T00:54:02;3.42;;;2.47;;
47431;SDS011;33183;52.290;6.144;2023-02-28T00:56:27;2.75;;;1.92;;
47431;SDS011;33183;52.290;6.144;2023-02-28T00:58:53;3.80;;;2.28;;
47431;SDS011;33183;52.290;6.144;2023-02-28T01:01:18;3.60;;;2.40;;
47431;SDS011;33183;52.290;6.144;2023-02-28T01:03:43;3.70;;;2.30;;
47431;SDS011;33183;52.290;6.144;2023-02-28T01:06:08;4.20;;;2.53;;
47431;SDS011;33183;52.290;6.144;2023-02-28T01:08:34;2.72;;;1.88;;
47431;SDS011;33183;52.290;6.144;2023-02-28T01:11:06;2.67;;;1.88;;
47431;SDS011;33183;52.290;6.144;2023-02-28T01:13:32;2.45;;;1.80;;
47431;SDS011;33183;52.290;6.144;2023-02-28T01:15:57;3.58;;;2.25;;
47431;SDS011;33183;52.290;6.144;2023-02-28T01:18:23;2.85;;;1.90;;
47431;SDS011;33183;52.290;6.144;2023-02-28T01:20:49;2.90;;;2.10;;
47431;SDS011;33183;52.290;6.144;2023-02-28T01:23:16;2.97;;;2.20;;
47431;SDS011;33183;52.290;6.144;2023-02-28T01:25:41;3.28;;;2.05;;
47431;SDS011;33183;52.290;6.144;2023-02-28T01:28:07;2.67;;;2.10;;
47431;SDS011;33183;52.290;6.144;2023-02-28T01:30:32;2.47;;;1.85;;
47431;SDS011;33183;52.290;6.144;2023-02-28T01:32:58;2.90;;;1.92;;
47431;SDS011;33183;52.290;6.144;2023-02-28T01:35:23;2.95;;;1.98;;
47431;SDS011;33183;52.290;6.144;2023-02-28T01:37:49;3.72;;;1.92;;
47431;SDS011;33183;52.290;6.144;2023-02-28T01:40:14;2.63;;;2.10;;
47431;SDS011;33183;52.290;6.144;2023-02-28T01:42:39;3.00;;;2.05;;
47431;SDS011;33183;52.290;6.144;2023-02-28T01:45:16;3.10;;;1.98;;
47431;SDS011;33183;52.290;6.144;2023-02-28T01:47:43;2.67;;;1.60;;
47431;SDS011;33183;52.290;6.144;2023-02-28T01:50:12;2.63;;;1.67;;
47431;SDS011;33183;52.290;6.144;2023-02-28T01:52:39;2.92;;;1.90;;
47431;SDS011;33183;52.290;6.144;2023-02-28T01:55:06;2.10;;;1.67;;
47431;SDS011;33183;52.290;6.144;2023-02-28T01:57:32;2.90;;;1.63;;
47431;SDS011;33183;52.290;6.144;2023-02-28T02:00:24;3.20;;;1.90;;
47431;SDS011;33183;52.290;6.144;2023-02-28T02:02:51;3.28;;;2.03;;
47431;SDS011;33183;52.290;6.144;2023-02-28T02:05:20;2.33;;;1.60;;
47431;SDS011;33183;52.290;6.144;2023-02-28T02:07:48;2.60;;;1.58;;
47431;SDS011;33183;52.290;6.144;2023-02-28T02:10:17;5.65;;;1.92;;
47431;SDS011;33183;52.290;6.144;2023-02-28T02:13:52;2.10;;;1.60;;
47431;SDS011;33183;52.290;6.144;2023-02-28T02:15:51;2.05;;;1.42;;
47431;SDS011;33183;52.290;6.144;2023-02-28T02:18:24;3.28;;;2.05;;
47431;SDS011;33183;52.290;6.144;2023-02-28T02:21:02;2.72;;;1.50;;
47431;SDS011;33183;52.290;6.144;2023-02-28T02:23:51;2.20;;;1.40;;
47431;SDS011;33183;52.290;6.144;2023-02-28T02:26:52;2.92;;;1.75;;
47431;SDS011;33183;52.290;6.144;2023-02-28T02:36:53;1.60;;;1.40;;
47431;SDS011;33183;52.290;6.144;2023-02-28T02:42:25;2.65;;;1.95;;
47431;SDS011;33183;52.290;6.144;2023-02-28T02:45:13;2.10;;;1.40;;
47431;SDS011;33183;52.290;6.144;2023-02-28T02:47:42;2.38;;;1.58;;
47431;SDS011;33183;52.290;6.144;2023-02-28T02:50:11;2.53;;;1.58;;
47431;SDS011;33183;52.290;6.144;2023-02-28T02:52:40;2.03;;;1.60;;
47431;SDS011;33183;52.290;6.144;2023-02-28T02:55:10;2.30;;;1.55;;
47431;SDS011;33183;52.290;6.144;2023-02-28T02:57:40;3.05;;;1.58;;
47431;SDS011;33183;52.290;6.144;2023-02-28T03:00:09;2.35;;;1.70;;
47431;SDS011;33183;52.290;6.144;2023-02-28T03:02:35;4.82;;;1.65;;
47431;SDS011;33183;52.290;6.144;2023-02-28T03:05:03;2.50;;;1.75;;
47431;SDS011;33183;52.290;6.144;2023-02-28T03:07:30;2.63;;;1.67;;
47431;SDS011;33183;52.290;6.144;2023-02-28T03:09:56;2.00;;;1.48;;
47431;SDS011;33183;52.290;6.144;2023-02-28T03:12:32;1.80;;;1.30;;
47431;SDS011;33183;52.290;6.144;2023-02-28T03:15:24;2.42;;;1.48;;
47431;SDS011;33183;52.290;6.144;2023-02-28T03:18:03;2.05;;;1.40;;
47431;SDS011;33183;52.290;6.144;2023-02-28T03:20:51;2.40;;;1.80;;
47431;SDS011;33183;52.290;6.144;2023-02-28T03:23:38;1.98;;;1.55;;
47431;SDS011;33183;52.290;6.144;2023-02-28T03:26:19;2.25;;;1.45;;
47431;SDS011;33183;52.290;6.144;2023-02-28T03:31:30;2.25;;;1.63;;
47431;SDS011;33183;52.290;6.144;2023-02-28T03:33:59;2.13;;;1.35;;
47431;SDS011;33183;52.290;6.144;2023-02-28T03:36:32;2.17;;;1.38;;
47431;SDS011;33183;52.290;6.144;2023-02-28T03:39:09;2.65;;;1.63;;
47431;SDS011;33183;52.290;6.144;2023-02-28T03:47:32;3.08;;;1.67;;
47431;SDS011;33183;52.290;6.144;2023-02-28T03:50:30;1.90;;;1.38;;
47431;SDS011;33183;52.290;6.144;2023-02-28T03:55:59;2.05;;;1.20;;
47431;SDS011;33183;52.290;6.144;2023-02-28T04:00:57;1.63;;;1.30;;
47431;SDS011;33183;52.290;6.144;2023-02-28T04:03:32;2.03;;;1.50;;
47431;SDS011;33183;52.290;6.144;2023-02-28T04:05:57;2.13;;;1.58;;
47431;SDS011;33183;52.290;6.144;2023-02-28T04:08:23;2.80;;;1.55;;
47431;SDS011;33183;52.290;6.144;2023-02-28T04:11:23;1.98;;;1.38;;
47431;SDS011;33183;52.290;6.144;2023-02-28T04:13:53;2.35;;;1.40;;
47431;SDS011;33183;52.290;6.144;2023-02-28T04:16:18;3.35;;;1.40;;
47431;SDS011;33183;52.290;6.144;2023-02-28T04:18:43;4.00;;;1.60;;
47431;SDS011;33183;52.290;6.144;2023-02-28T04:21:09;1.33;;;1.20;;
47431;SDS011;33183;52.290;6.144;2023-02-28T04:23:35;2.20;;;1.40;;
47431;SDS011;33183;52.290;6.144;2023-02-28T04:26:00;2.22;;;1.30;;
47431;SDS011;33183;52.290;6.144;2023-02-28T04:28:25;2.42;;;1.55;;
47431;SDS011;33183;52.290;6.144;2023-02-28T04:30:55;2.60;;;1.90;;
47431;SDS011;33183;52.290;6.144;2023-02-28T04:33:28;1.73;;;1.30;;
47431;SDS011;33183;52.290;6.144;2023-02-28T04:38:29;2.00;;;1.10;;
47431;SDS011;33183;52.290;6.144;2023-02-28T04:40:58;1.70;;;1.15;;
47431;SDS011;33183;52.290;6.144;2023-02-28T04:43:23;1.83;;;1.30;;
47431;SDS011;33183;52.290;6.144;2023-02-28T04:45:48;2.10;;;1.35;;
47431;SDS011;33183;52.290;6.144;2023-02-28T04:48:14;1.98;;;1.33;;
47431;SDS011;33183;52.290;6.144;2023-02-28T04:50:39;2.72;;;1.45;;
47431;SDS011;33183;52.290;6.144;2023-02-28T04:53:04;1.90;;;1.02;;
47431;SDS011;33183;52.290;6.144;2023-02-28T04:55:30;1.77;;;1.20;;
47431;SDS011;33183;52.290;6.144;2023-02-28T04:57:55;2.10;;;1.10;;
47431;SDS011;33183;52.290;6.144;2023-02-28T05:00:20;1.90;;;1.30;;
47431;SDS011;33183;52.290;6.144;2023-02-28T05:02:46;1.70;;;1.30;;
47431;SDS011;33183;52.290;6.144;2023-02-28T05:05:11;1.73;;;1.30;;
47431;SDS011;33183;52.290;6.144;2023-02-28T05:07:42;2.17;;;1.20;;
47431;SDS011;33183;52.290;6.144;2023-02-28T05:10:09;2.13;;;1.23;;
47431;SDS011;33183;52.290;6.144;2023-02-28T05:12:35;1.25;;;1.10;;
47431;SDS011;33183;52.290;6.144;2023-02-28T05:15:04;1.50;;;1.10;;
47431;SDS011;33183;52.290;6.144;2023-02-28T05:17:30;2.05;;;1.33;;
47431;SDS011;33183;52.290;6.144;2023-02-28T05:19:55;2.05;;;1.20;;
47431;SDS011;33183;52.290;6.144;2023-02-28T05:22:20;2.15;;;1.38;;
47431;SDS011;33183;52.290;6.144;2023-02-28T05:24:46;1.33;;;1.08;;
47431;SDS011;33183;52.290;6.144;2023-02-28T05:27:11;2.28;;;1.30;;
47431;SDS011;33183;52.290;6.144;2023-02-28T05:29:36;1.85;;;1.27;;
47431;SDS011;33183;52.290;6.144;2023-02-28T05:32:08;3.03;;;1.77;;
47431;SDS011;33183;52.290;6.144;2023-02-28T05:34:34;2.33;;;1.80;;
47431;SDS011;33183;52.290;6.144;2023-02-28T05:37:01;1.67;;;1.17;;
47431;SDS011;33183;52.290;6.144;2023-02-28T05:39:26;1.80;;;1.25;;
47431;SDS011;33183;52.290;6.144;2023-02-28T05:41:51;3.78;;;1.40;;
47431;SDS011;33183;52.290;6.144;2023-02-28T05:44:17;3.47;;;1.50;;
47431;SDS011;33183;52.290;6.144;2023-02-28T05:46:42;1.88;;;1.20;;
47431;SDS011;33183;52.290;6.144;2023-02-28T05:49:07;1.45;;;1.17;;
47431;SDS011;33183;52.290;6.144;2023-02-28T05:51:33;2.58;;;1.55;;
47431;SDS011;33183;52.290;6.144;2023-02-28T05:54:01;2.78;;;1.27;;
47431;SDS011;33183;52.290;6.144;2023-02-28T05:56:26;2.58;;;1.20;;
47431;SDS011;33183;52.290;6.144;2023-02-28T05:58:52;2.55;;;1.65;;
47431;SDS011;33183;52.290;6.144;2023-02-28T06:01:36;2.40;;;1.20;;
47431;SDS011;33183;52.290;6.144;2023-02-28T06:04:04;2.92;;;1.30;;
47431;SDS011;33183;52.290;6.144;2023-02-28T06:06:30;2.10;;;1.30;;
47431;SDS011;33183;52.290;6.144;2023-02-28T06:08:55;3.03;;;1.05;;
47431;SDS011;33183;52.290;6.144;2023-02-28T06:11:21;1.50;;;1.10;;
47431;SDS011;33183;52.290;6.144;2023-02-28T06:13:53;1.70;;;1.20;;
47431;SDS011;33183;52.290;6.144;2023-02-28T06:16:20;1.75;;;1.10;;
47431;SDS011;33183;52.290;6.144;2023-02-28T06:18:45;3.25;;;1.58;;
47431;SDS011;33183;52.290;6.144;2023-02-28T06:21:11;3.80;;;1.30;;
47431;SDS011;33183;52.290;6.144;2023-02-28T06:23:37;2.25;;;1.20;;
47431;SDS011;33183;52.290;6.144;2023-02-28T06:26:03;2.83;;;1.48;;
47431;SDS011;33183;52.290;6.144;2023-02-28T06:28:28;3.15;;;1.25;;
47431;SDS011;33183;52.290;6.144;2023-02-28T06:30:54;3.22;;;1.50;;
47431;SDS011;33183;52.290;6.144;2023-02-28T06:33:19;2.40;;;1.50;;
47431;SDS011;33183;52.290;6.144;2023-02-28T06:35:46;2.55;;;1.30;;
47431;SDS011;33183;52.290;6.144;2023-02-28T06:38:12;2.63;;;1.30;;
47431;SDS011;33183;52.290;6.144;2023-02-28T06:40:37;3.00;;;1.42;;
47431;SDS011;33183;52.290;6.144;2023-02-28T06:43:02;1.65;;;1.05;;
47431;SDS011;33183;52.290;6.144;2023-02-28T06:45:28;2.97;;;1.48;;
47431;SDS011;33183;52.290;6.144;2023-02-28T06:47:53;1.52;;;1.02;;
47431;SDS011;33183;52.290;6.144;2023-02-28T06:50:18;2.75;;;1.60;;
47431;SDS011;33183;52.290;6.144;2023-02-28T06:52:45;2.08;;;1.33;;
47431;SDS011;33183;52.290;6.144;2023-02-28T06:55:10;3.13;;;1.42;;
47431;SDS011;33183;52.290;6.144;2023-02-28T06:57:36;2.30;;;1.48;;
47431;SDS011;33183;52.290;6.144;2023-02-28T07:00:03;2.97;;;1.23;;
47431;SDS011;33183;52.290;6.144;2023-02-28T07:02:31;1.95;;;1.10;;
47431;SDS011;33183;52.290;6.144;2023-02-28T07:04:56;2.72;;;1.55;;
47431;SDS011;33183;52.290;6.144;2023-02-28T07:07:21;3.15;;;1.63;;
47431;SDS011;33183;52.290;6.144;2023-02-28T07:09:48;3.60;;;1.63;;
47431;SDS011;33183;52.290;6.144;2023-02-28T07:12:13;3.70;;;1.20;;
47431;SDS011;33183;52.290;6.144;2023-02-28T07:14:39;1.80;;;1.05;;
47431;SDS011;33183;52.290;6.144;2023-02-28T07:17:06;1.60;;;1.15;;
47431;SDS011;33183;52.290;6.144;2023-02-28T07:19:32;2.13;;;1.10;;
47431;SDS011;33183;52.290;6.144;2023-02-28T07:21:57;2.60;;;1.10;;
47431;SDS011;33183;52.290;6.144;2023-02-28T07:24:22;2.10;;;1.17;;
47431;SDS011;33183;52.290;6.144;2023-02-28T07:26:50;2.17;;;1.30;;
47431;SDS011;33183;52.290;6.144;2023-02-28T07:29:16;2.28;;;1.25;;
47431;SDS011;33183;52.290;6.144;2023-02-28T07:31:41;1.52;;;1.17;;
47431;SDS011;33183;52.290;6.144;2023-02-28T07:34:06;3.70;;;1.27;;
47431;SDS011;33183;52.290;6.144;2023-02-28T07:36:32;2.58;;;1.40;;
47431;SDS011;33183;52.290;6.144;2023-02-28T07:38:57;2.05;;;1.30;;
47431;SDS011;33183;52.290;6.144;2023-02-28T07:41:23;2.10;;;1.27;;
47431;SDS011;33183;52.290;6.144;2023-02-28T07:43:53;2.38;;;1.20;;
47431;SDS011;33183;52.290;6.144;2023-02-28T07:46:19;2.60;;;1.27;;
47431;SDS011;33183;52.290;6.144;2023-02-28T07:48:46;2.25;;;1.65;;
47431;SDS011;33183;52.290;6.144;2023-02-28T07:51:11;1.50;;;1.20;;
47431;SDS011;33183;52.290;6.144;2023-02-28T07:53:37;3.13;;;1.30;;
47431;SDS011;33183;52.290;6.144;2023-02-28T07:56:03;1.83;;;1.30;;
47431;SDS011;33183;52.290;6.144;2023-02-28T07:58:29;1.95;;;1.00;;
47431;SDS011;33183;52.290;6.144;2023-02-28T08:00:54;2.85;;;1.40;;
47431;SDS011;33183;52.290;6.144;2023-02-28T08:03:20;1.58;;;1.10;;
47431;SDS011;33183;52.290;6.144;2023-02-28T08:05:47;1.55;;;1.10;;
47431;SDS011;33183;52.290;6.144;2023-02-28T08:08:13;2.50;;;1.20;;
47431;SDS011;33183;52.290;6.144;2023-02-28T08:10:39;1.60;;;1.13;;
47431;SDS011;33183;52.290;6.144;2023-02-28T08:13:04;3.38;;;1.75;;
47431;SDS011;33183;52.290;6.144;2023-02-28T08:15:29;4.18;;;1.20;;
47431;SDS011;33183;52.290;6.144;2023-02-28T08:17:55;1.95;;;1.40;;
47431;SDS011;33183;52.290;6.144;2023-02-28T08:20:24;1.88;;;1.10;;
47431;SDS011;33183;52.290;6.144;2023-02-28T08:22:50;1.55;;;1.10;;
47431;SDS011;33183;52.290;6.144;2023-02-28T08:25:15;1.23;;;0.95;;
47431;SDS011;33183;52.290;6.144;2023-02-28T08:27:41;1.20;;;1.10;;
47431;SDS011;33183;52.290;6.144;2023-02-28T08:30:06;2.65;;;1.17;;
47431;SDS011;33183;52.290;6.144;2023-02-28T08:32:33;2.00;;;1.23;;
47431;SDS011;33183;52.290;6.144;2023-02-28T08:34:58;1.63;;;0.90;;
47431;SDS011;33183;52.290;6.144;2023-02-28T08:37:24;2.40;;;1.55;;
47431;SDS011;33183;52.290;6.144;2023-02-28T08:39:49;1.20;;;1.00;;
47431;SDS011;33183;52.290;6.144;2023-02-28T08:42:15;2.10;;;1.25;;
47431;SDS011;33183;52.290;6.144;2023-02-28T08:44:40;1.20;;;1.00;;
47431;SDS011;33183;52.290;6.144;2023-02-28T08:47:05;1.60;;;1.23;;
47431;SDS011;33183;52.290;6.144;2023-02-28T08:49:31;2.55;;;1.45;;
47431;SDS011;33183;52.290;6.144;2023-02-28T08:51:56;2.35;;;1.13;;
47431;SDS011;33183;52.290;6.144;2023-02-28T08:54:22;2.35;;;1.10;;
47431;SDS011;33183;52.290;6.144;2023-02-28T08:56:48;1.55;;;1.13;;
47431;SDS011;33183;52.290;6.144;2023-02-28T08:59:13;1.35;;;1.17;;
47431;SDS011;33183;52.290;6.144;2023-02-28T09:01:38;1.50;;;1.00;;
47431;SDS011;33183;52.290;6.144;2023-02-28T09:04:06;2.30;;;1.60;;
47431;SDS011;33183;52.290;6.144;2023-02-28T09:06:33;2.15;;;1.13;;
47431;SDS011;33183;52.290;6.144;2023-02-28T09:08:59;2.80;;;1.00;;
47431;SDS011;33183;52.290;6.144;2023-02-28T09:11:26;1.90;;;0.93;;
47431;SDS011;33183;52.290;6.144;2023-02-28T09:13:52;1.70;;;1.13;;
47431;SDS011;33183;52.290;6.144;2023-02-28T09:16:17;1.77;;;1.00;;
47431;SDS011;33183;52.290;6.144;2023-02-28T09:18:43;2.40;;;0.95;;
47431;SDS011;33183;52.290;6.144;2023-02-28T09:21:10;1.65;;;0.80;;
47431;SDS011;33183;52.290;6.144;2023-02-28T09:23:39;1.65;;;1.02;;
47431;SDS011;33183;52.290;6.144;2023-02-28T09:26:05;1.70;;;1.10;;
47431;SDS011;33183;52.290;6.144;2023-02-28T09:28:31;1.48;;;1.10;;
47431;SDS011;33183;52.290;6.144;2023-02-28T09:30:56;2.13;;;1.10;;
47431;SDS011;33183;52.290;6.144;2023-02-28T09:33:25;2.08;;;1.00;;
47431;SDS011;33183;52.290;6.144;2023-02-28T09:35:51;1.23;;;0.88;;
47431;SDS011;33183;52.290;6.144;2023-02-28T09:38:22;1.23;;;0.93;;
47431;SDS011;33183;52.290;6.144;2023-02-28T09:40:58;1.42;;;0.95;;
47431;SDS011;33183;52.290;6.144;2023-02-28T09:43:26;1.35;;;1.00;;
47431;SDS011;33183;52.290;6.144;2023-02-28T09:45:55;1.30;;;0.90;;
47431;SDS011;33183;52.290;6.144;2023-02-28T09:48:27;3.55;;;1.40;;
47431;SDS011;33183;52.290;6.144;2023-02-28T09:51:05;1.80;;;0.80;;
47431;SDS011;33183;52.290;6.144;2023-02-28T09:53:37;1.63;;;0.90;;
47431;SDS011;33183;52.290;6.144;2023-02-28T09:56:07;1.10;;;0.90;;
47431;SDS011;33183;52.290;6.144;2023-02-28T09:58:45;2.22;;;1.10;;
47431;SDS011;33183;52.290;6.144;2023-02-28T10:10:39;1.83;;;1.05;;
47431;SDS011;33183;52.290;6.144;2023-02-28T10:13:17;1.27;;;0.80;;
47431;SDS011;33183;52.290;6.144;2023-02-28T10:15:46;1.27;;;0.98;;
47431;SDS011;33183;52.290;6.144;2023-02-28T10:18:13;1.13;;;0.80;;
47431;SDS011;33183;52.290;6.144;2023-02-28T10:26:25;1.05;;;0.85;;
47431;SDS011;33183;52.290;6.144;2023-02-28T10:28:48;2.45;;;1.30;;
47431;SDS011;33183;52.290;6.144;2023-02-28T10:31:18;1.27;;;0.80;;
47431;SDS011;33183;52.290;6.144;2023-02-28T10:33:44;5.13;;;0.90;;
47431;SDS011;33183;52.290;6.144;2023-02-28T10:36:17;2.05;;;0.70;;
47431;SDS011;33183;52.290;6.144;2023-02-28T10:38:44;1.10;;;0.63;;
47431;SDS011;33183;52.290;6.144;2023-02-28T10:41:12;2.25;;;0.70;;
47431;SDS011;33183;52.290;6.144;2023-02-28T10:43:40;1.77;;;0.90;;
47431;SDS011;33183;52.290;6.144;2023-02-28T10:48:38;2.03;;;0.70;;
47431;SDS011;33183;52.290;6.144;2023-02-28T10:51:08;1.10;;;0.80;;
47431;SDS011;33183;52.290;6.144;2023-02-28T10:53:47;1.63;;;0.88;;
47431;SDS011;33183;52.290;6.144;2023-02-28T10:56:20;1.45;;;0.90;;
47431;SDS011;33183;52.290;6.144;2023-02-28T10:58:58;2.00;;;1.33;;
47431;SDS011;33183;52.290;6.144;2023-02-28T11:04:16;0.93;;;0.70;;
47431;SDS011;33183;52.290;6.144;2023-02-28T11:06:58;1.05;;;0.60;;
47431;SDS011;33183;52.290;6.144;2023-02-28T11:09:29;2.78;;;0.82;;
47431;SDS011;33183;52.290;6.144;2023-02-28T11:11:56;1.45;;;0.98;;
47431;SDS011;33183;52.290;6.144;2023-02-28T11:14:22;1.50;;;0.90;;
47431;SDS011;33183;52.290;6.144;2023-02-28T11:16:49;1.80;;;0.70;;
47431;SDS011;33183;52.290;6.144;2023-02-28T11:19:34;0.93;;;0.65;;
47431;SDS011;33183;52.290;6.144;2023-02-28T11:22:03;1.17;;;0.70;;
47431;SDS011;33183;52.290;6.144;2023-02-28T11:24:35;1.63;;;0.98;;
47431;SDS011;33183;52.290;6.144;2023-02-28T11:27:03;0.68;;;0.57;;
47431;SDS011;33183;52.290;6.144;2023-02-28T11:29:29;1.08;;;0.68;;
47431;SDS011;33183;52.290;6.144;2023-02-28T11:34:34;1.13;;;0.80;;
47431;SDS011;33183;52.290;6.144;2023-02-28T11:37:00;3.13;;;0.80;;
47431;SDS011;33183;52.290;6.144;2023-02-28T11:39:29;0.85;;;0.63;;
47431;SDS011;33183;52.290;6.144;2023-02-28T11:42:04;3.80;;;1.15;;
47431;SDS011;33183;52.290;6.144;2023-02-28T11:47:46;2.13;;;0.63;;
47431;SDS011;33183;52.290;6.144;2023-02-28T11:50:38;1.50;;;0.60;;
47431;SDS011;33183;52.290;6.144;2023-02-28T11:55:52;1.55;;;0.70;;
47431;SDS011;33183;52.290;6.144;2023-02-28T12:09:02;1.42;;;0.68;;
47431;SDS011;33183;52.290;6.144;2023-02-28T12:11:44;1.45;;;0.98;;
47431;SDS011;33183;52.290;6.144;2023-02-28T12:25:13;1.20;;;0.60;;
47431;SDS011;33183;52.290;6.144;2023-02-28T12:27:44;0.75;;;0.60;;
47431;SDS011;33183;52.290;6.144;2023-02-28T12:30:16;1.77;;;0.80;;
47431;SDS011;33183;52.290;6.144;2023-02-28T12:32:48;0.77;;;0.70;;
47431;SDS011;33183;52.290;6.144;2023-02-28T12:35:17;0.93;;;0.60;;
47431;SDS011;33183;52.290;6.144;2023-02-28T12:37:46;0.50;;;0.45;;
47431;SDS011;33183;52.290;6.144;2023-02-28T12:40:22;1.55;;;0.60;;
47431;SDS011;33183;52.290;6.144;2023-02-28T12:42:49;0.98;;;0.60;;
47431;SDS011;33183;52.290;6.144;2023-02-28T12:48:00;0.70;;;0.50;;
47431;SDS011;33183;52.290;6.144;2023-02-28T12:50:27;0.75;;;0.70;;
47431;SDS011;33183;52.290;6.144;2023-02-28T12:53:15;2.45;;;0.63;;
47431;SDS011;33183;52.290;6.144;2023-02-28T12:55:48;1.42;;;0.82;;
47431;SDS011;33183;52.290;6.144;2023-02-28T13:09:32;0.85;;;0.60;;
47431;SDS011;33183;52.290;6.144;2023-02-28T13:11:58;1.15;;;0.80;;
47431;SDS011;33183;52.290;6.144;2023-02-28T13:14:34;1.27;;;0.65;;
47431;SDS011;33183;52.290;6.144;2023-02-28T13:17:02;0.82;;;0.60;;
47431;SDS011;33183;52.290;6.144;2023-02-28T13:19:36;1.40;;;0.50;;
47431;SDS011;33183;52.290;6.144;2023-02-28T13:22:03;1.02;;;0.50;;
47431;SDS011;33183;52.290;6.144;2023-02-28T13:24:46;1.10;;;0.77;;
47431;SDS011;33183;52.290;6.144;2023-02-28T13:29:42;1.42;;;0.52;;
47431;SDS011;33183;52.290;6.144;2023-02-28T13:34:38;2.95;;;0.60;;
47431;SDS011;33183;52.290;6.144;2023-02-28T14:04:06;1.10;;;0.52;;
47431;SDS011;33183;52.290;6.144;2023-02-28T14:06:38;1.10;;;0.60;;
47431;SDS011;33183;52.290;6.144;2023-02-28T14:11:44;0.80;;;0.55;;
47431;SDS011;33183;52.290;6.144;2023-02-28T14:14:53;1.23;;;0.70;;
47431;SDS011;33183;52.290;6.144;2023-02-28T14:17:05;3.60;;;0.60;;
47431;SDS011;33183;52.290;6.144;2023-02-28T14:19:32;1.00;;;0.55;;
47431;SDS011;33183;52.290;6.144;2023-02-28T14:27:32;0.93;;;0.50;;
47431;SDS011;33183;52.290;6.144;2023-02-28T14:34:12;0.57;;;0.50;;
47431;SDS011;33183;52.290;6.144;2023-02-28T14:36:23;0.70;;;0.50;;
47431;SDS011;33183;52.290;6.144;2023-02-28T14:38:55;1.60;;;0.45;;
47431;SDS011;33183;52.290;6.144;2023-02-28T14:41:24;1.40;;;0.60;;
47431;SDS011;33183;52.290;6.144;2023-02-28T14:43:59;0.80;;;0.55;;
47431;SDS011;33183;52.290;6.144;2023-02-28T14:46:26;0.95;;;0.63;;
47431;SDS011;33183;52.290;6.144;2023-02-28T14:48:55;0.60;;;0.40;;
47431;SDS011;33183;52.290;6.144;2023-02-28T14:51:21;0.63;;;0.40;;
47431;SDS011;33183;52.290;6.144;2023-02-28T14:53:49;1.77;;;0.70;;
47431;SDS011;33183;52.290;6.144;2023-02-28T14:56:21;2.35;;;0.57;;
47431;SDS011;33183;52.290;6.144;2023-02-28T15:01:20;2.20;;;0.75;;
47431;SDS011;33183;52.290;6.144;2023-02-28T15:03:47;1.08;;;0.70;;
47431;SDS011;33183;52.290;6.144;2023-02-28T15:06:27;1.80;;;0.60;;
47431;SDS011;33183;52.290;6.144;2023-02-28T15:09:09;1.50;;;0.60;;
47431;SDS011;33183;52.290;6.144;2023-02-28T15:11:38;2.75;;;0.60;;
47431;SDS011;33183;52.290;6.144;2023-02-28T15:14:04;1.48;;;0.60;;
47431;SDS011;33183;52.290;6.144;2023-02-28T15:16:34;1.00;;;0.77;;
47431;SDS011;33183;52.290;6.144;2023-02-28T15:21:38;1.88;;;0.50;;
47431;SDS011;33183;52.290;6.144;2023-02-28T15:26:35;2.22;;;0.60;;
47431;SDS011;33183;52.290;6.144;2023-02-28T15:29:06;1.95;;;0.50;;
47431;SDS011;33183;52.290;6.144;2023-02-28T15:31:40;0.93;;;0.60;;
47431;SDS011;33183;52.290;6.144;2023-02-28T15:34:19;0.93;;;0.55;;
47431;SDS011;33183;52.290;6.144;2023-02-28T15:36:45;1.15;;;0.73;;
47431;SDS011;33183;52.290;6.144;2023-02-28T15:39:21;0.68;;;0.50;;
47431;SDS011;33183;52.290;6.144;2023-02-28T15:41:49;2.15;;;0.70;;
47431;SDS011;33183;52.290;6.144;2023-02-28T15:44:16;1.77;;;0.50;;
47431;SDS011;33183;52.290;6.144;2023-02-28T15:46:59;1.15;;;0.70;;
47431;SDS011;33183;52.290;6.144;2023-02-28T15:49:26;0.80;;;0.70;;
47431;SDS011;33183;52.290;6.144;2023-02-28T15:51:53;0.80;;;0.52;;
47431;SDS011;33183;52.290;6.144;2023-02-28T15:54:22;1.25;;;0.63;;
47431;SDS011;33183;52.290;6.144;2023-02-28T15:56:52;2.22;;;0.63;;
47431;SDS011;33183;52.290;6.144;2023-02-28T15:59:24;0.82;;;0.63;;
47431;SDS011;33183;52.290;6.144;2023-02-28T16:04:34;2.75;;;0.70;;
47431;SDS011;33183;52.290;6.144;2023-02-28T16:07:01;0.95;;;0.57;;
47431;SDS011;33183;52.290;6.144;2023-02-28T16:09:30;1.05;;;0.50;;
47431;SDS011;33183;52.290;6.144;2023-02-28T16:11:56;1.45;;;0.60;;
47431;SDS011;33183;52.290;6.144;2023-02-28T16:14:26;0.77;;;0.60;;
47431;SDS011;33183;52.290;6.144;2023-02-28T16:16:55;1.45;;;0.60;;
47431;SDS011;33183;52.290;6.144;2023-02-28T16:19:22;1.63;;;0.43;;
47431;SDS011;33183;52.290;6.144;2023-02-28T16:21:48;0.70;;;0.45;;
47431;SDS011;33183;52.290;6.144;2023-02-28T16:24:14;1.65;;;0.80;;
47431;SDS011;33183;52.290;6.144;2023-02-28T16:26:39;0.68;;;0.55;;
47431;SDS011;33183;52.290;6.144;2023-02-28T16:29:06;1.48;;;0.50;;
47431;SDS011;33183;52.290;6.144;2023-02-28T16:31:35;0.70;;;0.70;;
47431;SDS011;33183;52.290;6.144;2023-02-28T16:34:02;1.88;;;1.13;;
47431;SDS011;33183;52.290;6.144;2023-02-28T16:36:28;1.95;;;0.60;;
47431;SDS011;33183;52.290;6.144;2023-02-28T16:38:54;3.38;;;1.50;;
47431;SDS011;33183;52.290;6.144;2023-02-28T16:41:24;3.30;;;1.20;;
47431;SDS011;33183;52.290;6.144;2023-02-28T16:43:51;1.98;;;1.00;;
47431;SDS011;33183;52.290;6.144;2023-02-28T16:46:17;2.55;;;1.05;;
47431;SDS011;33183;52.290;6.144;2023-02-28T16:48:44;1.98;;;1.13;;
47431;SDS011;33183;52.290;6.144;2023-02-28T16:51:13;1.42;;;0.98;;
47431;SDS011;33183;52.290;6.144;2023-02-28T16:53:42;2.58;;;1.02;;
47431;SDS011;33183;52.290;6.144;2023-02-28T16:56:21;3.42;;;1.30;;
47431;SDS011;33183;52.290;6.144;2023-02-28T16:58:48;1.55;;;1.08;;
47431;SDS011;33183;52.290;6.144;2023-02-28T17:01:14;3.67;;;1.13;;
47431;SDS011;33183;52.290;6.144;2023-02-28T17:03:40;2.33;;;0.95;;
47431;SDS011;33183;52.290;6.144;2023-02-28T17:06:06;1.70;;;0.88;;
47431;SDS011;33183;52.290;6.144;2023-02-28T17:08:35;1.40;;;1.00;;
47431;SDS011;33183;52.290;6.144;2023-02-28T17:11:01;1.77;;;0.90;;
47431;SDS011;33183;52.290;6.144;2023-02-28T17:13:27;2.42;;;1.10;;
47431;SDS011;33183;52.290;6.144;2023-02-28T17:15:52;1.65;;;0.88;;
47431;SDS011;33183;52.290;6.144;2023-02-28T17:18:18;1.40;;;0.88;;
47431;SDS011;33183;52.290;6.144;2023-02-28T17:20:44;2.10;;;0.93;;
47431;SDS011;33183;52.290;6.144;2023-02-28T17:23:10;1.23;;;0.75;;